KWDG/WDG METAR and TAF weather

Enter ICAO airport designator
Station Type Date Time Source
KWDG METAR 2019/12/08 16:47 UTC NOAA

KWDG 081647Z 19008KT 10SM BKN180 OVC250 11/06 A2979


Station Type Date Time Source
KWDG Decoded METAR 2019/12/08 16:47 UTC NOAA

Enid, Enid Woodring Regional Airport, OK, United States (KWDG) 36-22-45N 097-47-28W
Dec 08, 2019 - 11:47 AM EST / 2019.12.08 1647 UTC
Wind: from the S (190 degrees) at 9 MPH (8 KT):0
Visibility: 10 mile(s):0
Sky conditions: overcast
Temperature: 51 F (11 C)
Dew Point: 42 F (6 C)
Relative Humidity: 71%
Pressure (altimeter): 29.79 in. Hg (1008 hPa)
ob: KWDG 081647Z 19008KT 10SM BKN180 OVC250 11/06 A2979
cycle: 17

Station Type Date Time Source
KWDG TAF UTC NOAA

Error!

Example: see airport list